createdAt,value
2017-05-29T00:00:11.345Z,23.03
2017-05-29T00:00:51.929Z,23.02
2017-05-29T00:01:32.510Z,22.96
2017-05-29T00:02:13.082Z,22.99
2017-05-29T00:02:53.672Z,22.99
2017-05-29T00:03:34.258Z,23.02
2017-05-29T00:04:14.835Z,22.88
2017-05-29T00:04:55.448Z,23
2017-05-29T00:05:36.032Z,23
2017-05-29T00:06:16.644Z,22.99
2017-05-29T00:06:57.220Z,23.02
2017-05-29T00:07:37.835Z,22.96
2017-05-29T00:08:18.423Z,22.96
2017-05-29T00:08:59.026Z,22.96
2017-05-29T00:09:39.682Z,22.99
2017-05-29T00:10:20.283Z,22.94
2017-05-29T00:11:00.860Z,22.88
2017-05-29T00:11:41.467Z,22.93
2017-05-29T00:12:22.049Z,22.91
2017-05-29T00:13:02.639Z,22.9
2017-05-29T00:13:43.236Z,22.88
2017-05-29T00:14:23.837Z,22.85
2017-05-29T00:15:04.438Z,22.88
2017-05-29T00:15:45.027Z,22.87
2017-05-29T00:16:25.613Z,22.83
2017-05-29T00:17:06.198Z,22.81
2017-05-29T00:17:46.786Z,22.9
2017-05-29T00:18:27.365Z,22.84
2017-05-29T00:19:07.948Z,22.81
2017-05-29T00:19:48.533Z,22.81
2017-05-29T00:20:29.118Z,22.83
2017-05-29T00:21:09.717Z,22.78
2017-05-29T00:21:50.307Z,22.84
2017-05-29T00:22:30.873Z,22.78
2017-05-29T00:23:11.460Z,22.8
2017-05-29T00:23:52.066Z,22.85
2017-05-29T00:24:32.651Z,22.83
2017-05-29T00:25:13.240Z,22.87
2017-05-29T00:25:53.814Z,22.83
2017-05-29T00:26:34.403Z,22.8
2017-05-29T00:27:14.997Z,22.73
2017-05-29T00:27:55.609Z,22.8
2017-05-29T00:28:36.200Z,22.8
2017-05-29T00:29:16.789Z,22.76
2017-05-29T00:29:57.392Z,22.76
2017-05-29T00:30:37.980Z,22.7
2017-05-29T00:31:18.558Z,22.75
2017-05-29T00:31:59.140Z,22.73
2017-05-29T00:32:39.745Z,22.76
2017-05-29T00:33:20.340Z,22.78
2017-05-29T00:34:00.917Z,22.7
2017-05-29T00:34:41.499Z,22.75
2017-05-29T00:35:22.095Z,22.8
2017-05-29T00:36:02.683Z,22.76
2017-05-29T00:36:43.280Z,22.75
2017-05-29T00:37:23.870Z,22.68
2017-05-29T00:38:04.460Z,22.72
2017-05-29T00:38:45.059Z,22.78
2017-05-29T00:39:25.656Z,22.68
2017-05-29T00:40:06.249Z,22.73
2017-05-29T00:40:46.838Z,22.73
2017-05-29T00:41:27.427Z,22.69
2017-05-29T00:42:08.037Z,22.66
2017-05-29T00:42:48.615Z,22.72
2017-05-29T00:43:29.197Z,22.72
2017-05-29T00:44:09.795Z,22.76
2017-05-29T00:44:50.392Z,22.73
2017-05-29T00:45:30.978Z,22.7
2017-05-29T00:46:11.574Z,22.83
2017-05-29T00:46:52.159Z,22.6
2017-05-29T00:47:32.775Z,22.73
2017-05-29T00:48:13.372Z,22.69
2017-05-29T00:48:53.964Z,22.72
2017-05-29T00:49:34.558Z,22.72
2017-05-29T00:50:15.137Z,22.68
2017-05-29T00:50:55.781Z,22.66
2017-05-29T00:51:36.362Z,22.66
2017-05-29T00:52:16.946Z,22.7
2017-05-29T00:52:57.545Z,22.66
2017-05-29T00:53:38.130Z,22.66
2017-05-29T00:54:18.711Z,22.63
2017-05-29T00:54:59.454Z,22.73
2017-05-29T00:55:40.060Z,22.69
2017-05-29T00:56:20.646Z,22.68
2017-05-29T00:57:01.226Z,22.68
2017-05-29T00:57:41.823Z,22.66
2017-05-29T00:58:22.407Z,22.53
2017-05-29T00:59:02.999Z,22.57
2017-05-29T00:59:43.587Z,22.53
2017-05-29T01:00:24.182Z,22.57
2017-05-29T01:01:04.835Z,22.54
2017-05-29T01:01:45.415Z,22.57
2017-05-29T01:02:26.008Z,22.59
2017-05-29T01:03:06.609Z,22.6
2017-05-29T01:03:47.217Z,22.54
2017-05-29T01:04:27.808Z,22.6
2017-05-29T01:05:08.389Z,22.63
2017-05-29T01:05:48.968Z,22.6
2017-05-29T01:06:29.571Z,22.62
2017-05-29T01:07:10.152Z,22.6
2017-05-29T01:07:50.737Z,22.65
2017-05-29T01:08:31.322Z,22.62
2017-05-29T01:09:11.903Z,22.59
2017-05-29T01:09:52.489Z,22.59
2017-05-29T01:10:33.087Z,22.62
2017-05-29T01:11:13.677Z,22.65
2017-05-29T01:11:54.286Z,22.62
2017-05-29T01:12:34.863Z,22.66
2017-05-29T01:13:15.486Z,22.66
2017-05-29T01:13:56.079Z,22.62
2017-05-29T01:14:36.662Z,22.63
2017-05-29T01:15:17.241Z,22.63
2017-05-29T01:15:57.816Z,22.66
2017-05-29T01:16:38.434Z,22.66
2017-05-29T01:17:19.014Z,22.6
2017-05-29T01:17:59.598Z,22.62
2017-05-29T01:18:40.189Z,22.68
2017-05-29T01:19:20.775Z,22.68
2017-05-29T01:20:01.370Z,22.72
2017-05-29T01:20:41.957Z,22.6
2017-05-29T01:21:22.553Z,22.72
2017-05-29T01:22:03.150Z,22.72
2017-05-29T01:22:43.737Z,22.6
2017-05-29T01:23:24.325Z,22.55
2017-05-29T01:24:04.941Z,22.68
2017-05-29T01:24:45.529Z,22.72
2017-05-29T01:25:26.117Z,22.65
2017-05-29T01:26:06.711Z,22.65
2017-05-29T01:26:47.295Z,22.65
2017-05-29T01:27:27.894Z,22.84
2017-05-29T01:28:08.468Z,22.81
2017-05-29T01:28:49.045Z,22.7
2017-05-29T01:29:29.689Z,22.7
2017-05-29T01:30:10.321Z,22.62
2017-05-29T01:30:50.895Z,22.65
2017-05-29T01:31:31.494Z,22.7
2017-05-29T01:32:12.080Z,22.68
2017-05-29T01:32:52.748Z,22.62
2017-05-29T01:33:33.336Z,22.7
2017-05-29T01:34:13.930Z,22.65
2017-05-29T01:34:54.506Z,22.62
2017-05-29T01:35:35.121Z,22.69
2017-05-29T01:36:15.834Z,22.66
2017-05-29T01:36:56.438Z,22.66
2017-05-29T01:37:37.014Z,22.66
2017-05-29T01:38:17.667Z,22.65
2017-05-29T01:38:58.247Z,22.65
2017-05-29T01:39:38.855Z,22.53
2017-05-29T01:40:19.424Z,22.6
2017-05-29T01:41:00.016Z,22.65
2017-05-29T01:41:40.659Z,22.62
2017-05-29T01:42:21.248Z,22.65
2017-05-29T01:43:01.880Z,22.63
2017-05-29T01:43:42.461Z,22.65
2017-05-29T01:44:23.043Z,22.62
2017-05-29T01:45:03.633Z,22.55
2017-05-29T01:45:44.221Z,22.62
2017-05-29T01:46:24.859Z,22.63
2017-05-29T01:47:05.450Z,22.57
2017-05-29T01:47:46.076Z,22.53
2017-05-29T01:48:26.668Z,22.5
2017-05-29T01:49:07.251Z,22.57
2017-05-29T01:49:47.852Z,22.51
2017-05-29T01:50:28.507Z,22.51
2017-05-29T01:51:09.111Z,22.47
2017-05-29T01:51:49.707Z,22.51
2017-05-29T01:52:30.310Z,22.51
2017-05-29T01:53:10.957Z,22.47
2017-05-29T01:53:51.588Z,22.47
2017-05-29T01:54:32.162Z,22.54
2017-05-29T01:55:12.751Z,22.45
2017-05-29T01:55:53.363Z,22.44
2017-05-29T01:56:33.940Z,22.48
2017-05-29T01:57:14.520Z,22.5
2017-05-29T01:57:55.150Z,22.44
2017-05-29T01:58:35.732Z,22.47
2017-05-29T01:59:16.328Z,22.44
2017-05-29T01:59:56.912Z,22.47
2017-05-29T02:00:37.601Z,22.45
2017-05-29T02:01:18.187Z,22.44
2017-05-29T02:01:58.792Z,22.44
2017-05-29T02:02:39.347Z,22.43
2017-05-29T02:03:19.959Z,22.45
2017-05-29T02:04:00.545Z,22.39
2017-05-29T02:04:41.129Z,22.41
2017-05-29T02:05:21.713Z,22.5
2017-05-29T02:06:02.295Z,22.43
2017-05-29T02:06:42.882Z,22.41
2017-05-29T02:07:23.473Z,22.43
2017-05-29T02:08:04.062Z,22.48
2017-05-29T02:08:44.728Z,22.39
2017-05-29T02:09:25.313Z,22.43
2017-05-29T02:10:05.899Z,22.36
2017-05-29T02:10:46.465Z,22.32
2017-05-29T02:11:27.095Z,22.36
2017-05-29T02:12:11.505Z,22.36
2017-05-29T02:12:51.169Z,22.3
2017-05-29T02:13:31.791Z,22.33
2017-05-29T02:14:12.389Z,22.35
2017-05-29T02:14:52.978Z,22.33
2017-05-29T02:15:33.573Z,22.25
2017-05-29T02:16:14.161Z,22.32
2017-05-29T02:16:54.760Z,22.28
2017-05-29T02:17:35.377Z,22.26
2017-05-29T02:18:16.102Z,22.2
2017-05-29T02:18:56.653Z,22.22
2017-05-29T02:19:37.259Z,22.33
2017-05-29T02:20:17.867Z,22.22
2017-05-29T02:20:58.499Z,22.26
2017-05-29T02:21:39.097Z,22.28
2017-05-29T02:22:19.711Z,22.23
2017-05-29T02:23:00.322Z,22.23
2017-05-29T02:23:40.962Z,22.2
2017-05-29T02:24:21.548Z,22.23
2017-05-29T02:25:02.141Z,22.23
2017-05-29T02:25:42.811Z,22.2
2017-05-29T02:26:23.430Z,22.2
2017-05-29T02:27:03.992Z,22.28
2017-05-29T02:27:44.580Z,22.22
2017-05-29T02:28:25.188Z,22.18
2017-05-29T02:29:05.788Z,22.1
2017-05-29T02:29:46.380Z,22.17
2017-05-29T02:30:26.968Z,22.22
2017-05-29T02:31:07.551Z,22.18
2017-05-29T02:31:48.143Z,22.18
2017-05-29T02:32:28.740Z,22.11
2017-05-29T02:33:09.339Z,22.13
2017-05-29T02:33:49.953Z,22.15
2017-05-29T02:34:30.544Z,22.1
2017-05-29T02:35:11.195Z,22.11
2017-05-29T02:35:51.873Z,22.06
2017-05-29T02:36:32.430Z,22.13
2017-05-29T02:37:13.117Z,22.11
2017-05-29T02:37:53.738Z,22.15
2017-05-29T02:38:34.371Z,21.98
2017-05-29T02:39:14.953Z,22.13
2017-05-29T02:39:55.576Z,22.13
2017-05-29T02:40:36.206Z,22.04
2017-05-29T02:41:16.805Z,22.06
2017-05-29T02:41:57.449Z,22.06
2017-05-29T02:42:38.082Z,22.14
2017-05-29T02:43:18.646Z,22.02
2017-05-29T02:43:59.257Z,22.02
2017-05-29T02:44:39.841Z,22.08
2017-05-29T02:45:20.472Z,22
2017-05-29T02:46:01.147Z,22.11
2017-05-29T02:46:41.755Z,22.1
2017-05-29T02:47:22.350Z,22.07
2017-05-29T02:48:03.004Z,22.06
2017-05-29T02:48:43.582Z,22.08
2017-05-29T02:49:24.236Z,22
2017-05-29T02:50:04.883Z,22.08
2017-05-29T02:50:45.490Z,22.08
2017-05-29T02:51:26.037Z,22.04
2017-05-29T02:52:06.650Z,22.04
2017-05-29T02:52:47.279Z,22.06
2017-05-29T02:53:27.893Z,22.04
2017-05-29T02:54:08.526Z,21.95
2017-05-29T02:54:49.130Z,22.02
2017-05-29T02:55:29.762Z,21.99
2017-05-29T02:56:10.349Z,21.95
2017-05-29T02:56:50.943Z,21.92
2017-05-29T02:57:31.559Z,21.95
2017-05-29T02:58:12.138Z,21.95
2017-05-29T02:58:52.731Z,21.89
2017-05-29T02:59:33.398Z,21.91
2017-05-29T03:00:14.066Z,21.91
2017-05-29T03:00:54.701Z,21.93
2017-05-29T03:01:35.286Z,21.89
2017-05-29T03:02:15.881Z,21.95
2017-05-29T03:02:56.472Z,21.92
2017-05-29T03:03:37.127Z,21.92
2017-05-29T03:04:17.761Z,21.92
2017-05-29T03:04:58.345Z,21.93
2017-05-29T03:05:38.968Z,21.95
2017-05-29T03:06:19.639Z,21.85
2017-05-29T03:07:00.252Z,21.92
2017-05-29T03:07:40.913Z,21.85
2017-05-29T03:08:21.558Z,21.91
2017-05-29T03:09:02.127Z,21.95
2017-05-29T03:09:42.727Z,21.93
2017-05-29T03:10:23.441Z,21.92
2017-05-29T03:11:04.074Z,21.88
2017-05-29T03:11:44.669Z,21.82
2017-05-29T03:12:25.303Z,21.88
2017-05-29T03:13:05.876Z,21.89
2017-05-29T03:13:46.467Z,21.93
2017-05-29T03:14:27.061Z,21.93
2017-05-29T03:15:07.709Z,21.85
2017-05-29T03:15:48.354Z,21.92
2017-05-29T03:16:28.915Z,21.93
2017-05-29T03:17:09.551Z,21.91
2017-05-29T03:17:50.167Z,21.89
2017-05-29T03:18:30.760Z,21.92
2017-05-29T03:19:11.388Z,21.82
2017-05-29T03:19:51.974Z,21.89
2017-05-29T03:20:32.565Z,21.92
2017-05-29T03:21:13.156Z,21.91
2017-05-29T03:21:53.739Z,21.91
2017-05-29T03:22:34.348Z,21.93
2017-05-29T03:23:14.970Z,21.96
2017-05-29T03:23:55.585Z,21.93
2017-05-29T03:24:36.165Z,21.93
2017-05-29T03:25:16.762Z,21.91
2017-05-29T03:25:57.428Z,21.91
2017-05-29T03:26:37.993Z,21.93
2017-05-29T03:27:18.599Z,21.89
2017-05-29T03:27:59.215Z,21.92
2017-05-29T03:28:39.829Z,21.92
2017-05-29T03:29:20.502Z,21.91
2017-05-29T03:30:01.144Z,21.93
2017-05-29T03:30:41.845Z,21.85
2017-05-29T03:31:22.508Z,21.92
2017-05-29T03:32:03.089Z,21.95
2017-05-29T03:32:43.752Z,21.82
2017-05-29T03:33:24.315Z,21.93
2017-05-29T03:34:04.910Z,21.85
2017-05-29T03:34:45.525Z,21.82
2017-05-29T03:35:26.101Z,21.85
2017-05-29T03:36:06.703Z,21.79
2017-05-29T03:36:47.310Z,21.82
2017-05-29T03:37:27.907Z,21.85
2017-05-29T03:38:08.520Z,21.91
2017-05-29T03:38:49.110Z,21.82
2017-05-29T03:39:29.725Z,21.83
2017-05-29T03:40:10.306Z,21.83
2017-05-29T03:40:50.928Z,21.82
2017-05-29T03:41:31.536Z,21.75
2017-05-29T03:42:12.146Z,21.79
2017-05-29T03:42:52.730Z,21.83
2017-05-29T03:43:33.349Z,21.79
2017-05-29T03:44:13.935Z,21.76
2017-05-29T03:44:54.530Z,21.82
2017-05-29T03:45:35.137Z,21.8
2017-05-29T03:46:15.734Z,21.93
2017-05-29T03:46:56.431Z,21.91
2017-05-29T03:47:37.210Z,21.92
2017-05-29T03:48:17.789Z,21.89
2017-05-29T03:48:58.393Z,21.83
2017-05-29T03:49:38.999Z,21.85
2017-05-29T03:50:19.604Z,21.79
2017-05-29T03:51:00.206Z,21.88
2017-05-29T03:51:40.794Z,21.89
2017-05-29T03:52:21.396Z,21.85
2017-05-29T03:53:01.995Z,21.82
2017-05-29T03:53:42.574Z,21.85
2017-05-29T03:54:23.150Z,21.89
2017-05-29T03:55:03.726Z,21.83
2017-05-29T03:55:44.310Z,21.88
2017-05-29T03:56:24.903Z,21.77
2017-05-29T03:57:05.500Z,21.8
2017-05-29T03:57:46.085Z,21.82
2017-05-29T03:58:26.678Z,21.92
2017-05-29T03:59:07.273Z,21.89
2017-05-29T03:59:47.860Z,21.92
2017-05-29T04:00:28.440Z,21.85
2017-05-29T04:01:09.025Z,21.8
2017-05-29T04:01:49.627Z,21.85
2017-05-29T04:02:30.225Z,21.82
2017-05-29T04:03:10.820Z,21.83
2017-05-29T04:03:51.414Z,21.85
2017-05-29T04:04:32.003Z,21.8
2017-05-29T04:05:12.590Z,21.85
2017-05-29T04:05:53.169Z,21.85
2017-05-29T04:06:33.751Z,21.85
2017-05-29T04:07:14.329Z,21.89
2017-05-29T04:07:54.915Z,21.92
2017-05-29T04:08:35.498Z,21.92
2017-05-29T04:09:16.094Z,21.98
2017-05-29T04:09:56.682Z,21.96
2017-05-29T04:10:37.293Z,21.92
2017-05-29T04:11:17.887Z,21.88
2017-05-29T04:11:58.489Z,21.93
2017-05-29T04:12:55.827Z,21.92
2017-05-29T04:13:36.410Z,21.95
2017-05-29T04:14:17.002Z,21.93
2017-05-29T04:14:57.623Z,21.92
2017-05-29T04:15:38.209Z,21.91
2017-05-29T04:16:18.819Z,21.95
2017-05-29T04:16:59.409Z,21.96
2017-05-29T04:17:39.989Z,21.93
2017-05-29T04:18:20.669Z,21.96
2017-05-29T04:19:01.254Z,21.92
2017-05-29T04:19:41.856Z,21.95
2017-05-29T04:20:22.449Z,21.96
2017-05-29T04:21:03.028Z,21.95
2017-05-29T04:21:43.702Z,21.91
2017-05-29T04:22:24.243Z,21.92
2017-05-29T04:23:04.818Z,21.91
2017-05-29T04:23:45.394Z,21.96
2017-05-29T04:24:26.043Z,21.96
2017-05-29T04:25:06.638Z,22.04
2017-05-29T04:25:47.232Z,21.91
2017-05-29T04:26:27.808Z,21.99
2017-05-29T04:27:08.387Z,21.95
2017-05-29T04:27:48.993Z,22
2017-05-29T04:28:29.575Z,22.06
2017-05-29T04:29:10.167Z,22.04
2017-05-29T04:29:50.760Z,22
2017-05-29T04:30:31.342Z,22.04
2017-05-29T04:31:11.924Z,22.02
2017-05-29T04:31:52.509Z,22.06
2017-05-29T04:32:33.090Z,21.99
2017-05-29T04:33:13.667Z,22.1
2017-05-29T04:33:54.316Z,22.07
2017-05-29T04:34:34.909Z,22.02
2017-05-29T04:35:15.508Z,22.02
2017-05-29T04:35:56.078Z,22.08
2017-05-29T04:36:36.671Z,22.11
2017-05-29T04:37:17.253Z,22.15
2017-05-29T04:37:57.842Z,22.18
2017-05-29T04:38:38.433Z,22.15
2017-05-29T04:39:19.009Z,22.2
2017-05-29T04:39:59.578Z,22.17
2017-05-29T04:40:40.169Z,22.15
2017-05-29T04:41:20.756Z,22.23
2017-05-29T04:42:01.343Z,22.2
2017-05-29T04:42:41.991Z,22.26
2017-05-29T04:43:22.560Z,22.18
2017-05-29T04:44:03.140Z,22.2
2017-05-29T04:44:43.728Z,22.25
2017-05-29T04:45:24.308Z,22.23
2017-05-29T04:46:04.907Z,22.23
2017-05-29T04:46:45.508Z,22.2
2017-05-29T04:47:26.120Z,22.23
2017-05-29T04:48:06.706Z,22.23
2017-05-29T04:48:47.318Z,22.28
2017-05-29T04:49:27.907Z,22.29
2017-05-29T04:50:08.517Z,22.33
2017-05-29T04:50:49.108Z,22.33
2017-05-29T04:51:29.694Z,22.26
2017-05-29T04:52:10.281Z,22.33
2017-05-29T04:52:50.860Z,22.35
2017-05-29T04:53:31.449Z,22.39
2017-05-29T04:54:12.029Z,22.39
2017-05-29T04:54:52.608Z,22.38
2017-05-29T04:55:33.202Z,22.28
2017-05-29T04:56:13.809Z,22.36
2017-05-29T04:56:54.390Z,22.38
2017-05-29T04:57:34.963Z,22.43
2017-05-29T04:58:15.557Z,22.38
2017-05-29T04:58:56.163Z,22.45
2017-05-29T04:59:36.777Z,22.43
2017-05-29T05:00:17.377Z,22.39
2017-05-29T05:00:57.999Z,22.41
2017-05-29T05:01:38.586Z,22.39
2017-05-29T05:02:19.233Z,22.43
2017-05-29T05:02:59.828Z,22.53
2017-05-29T05:03:40.419Z,22.43
2017-05-29T05:04:21.050Z,22.53
2017-05-29T05:05:01.635Z,22.51
2017-05-29T05:05:42.245Z,22.48
2017-05-29T05:06:22.847Z,22.53
2017-05-29T05:07:03.462Z,22.59
2017-05-29T05:07:44.073Z,22.54
2017-05-29T05:08:24.666Z,22.53
2017-05-29T05:09:05.251Z,22.63
2017-05-29T05:09:45.861Z,22.6
2017-05-29T05:10:26.441Z,22.69
2017-05-29T05:11:07.041Z,22.72
2017-05-29T05:11:47.677Z,22.75
2017-05-29T05:12:28.268Z,22.76
2017-05-29T05:13:08.870Z,22.81
2017-05-29T05:13:49.460Z,22.83
2017-05-29T05:14:30.067Z,22.81
2017-05-29T05:15:10.683Z,22.85
2017-05-29T05:15:51.280Z,22.88
2017-05-29T05:16:31.859Z,22.84
2017-05-29T05:17:12.474Z,22.88
2017-05-29T05:17:53.076Z,22.99
2017-05-29T05:18:33.662Z,22.98
2017-05-29T05:19:14.246Z,22.99
2017-05-29T05:19:54.826Z,22.98
2017-05-29T05:20:35.404Z,23.05
2017-05-29T05:21:16.018Z,23.1
2017-05-29T05:21:56.627Z,23.09
2017-05-29T05:22:37.208Z,23.12
2017-05-29T05:23:17.825Z,23.13
2017-05-29T05:23:58.427Z,23.12
2017-05-29T05:24:39.036Z,23.2
2017-05-29T05:25:19.607Z,23.1
2017-05-29T05:26:00.194Z,23.23
2017-05-29T05:26:40.791Z,23.2
2017-05-29T05:27:21.411Z,23.23
2017-05-29T05:28:02.024Z,23.37
2017-05-29T05:28:42.622Z,23.27
2017-05-29T05:29:23.212Z,23.44
2017-05-29T05:30:03.815Z,23.4
2017-05-29T05:30:44.422Z,23.47
2017-05-29T05:31:25.011Z,23.58
2017-05-29T05:32:05.616Z,23.63
2017-05-29T05:32:46.179Z,23.68
2017-05-29T05:33:26.772Z,23.66
2017-05-29T05:34:07.383Z,23.78
2017-05-29T05:34:47.966Z,23.8
2017-05-29T05:35:28.549Z,23.87
2017-05-29T05:36:09.134Z,23.96
2017-05-29T05:36:49.728Z,24.01
2017-05-29T05:37:30.317Z,24.16
2017-05-29T05:38:10.914Z,24.17
2017-05-29T05:38:51.534Z,24.17
2017-05-29T05:39:32.115Z,24.21
2017-05-29T05:40:12.713Z,24.35
2017-05-29T05:40:53.290Z,24.26
2017-05-29T05:41:33.885Z,24.42
2017-05-29T05:42:14.481Z,24.45
2017-05-29T05:42:55.086Z,24.45
2017-05-29T05:43:35.670Z,24.45
2017-05-29T05:44:16.273Z,24.54
2017-05-29T05:44:56.898Z,24.55
2017-05-29T05:45:37.518Z,24.66
2017-05-29T05:46:18.106Z,24.77
2017-05-29T05:46:58.689Z,24.85
2017-05-29T05:47:39.271Z,24.86
2017-05-29T05:48:19.854Z,24.89
2017-05-29T05:49:00.436Z,25.13
2017-05-29T05:49:41.051Z,25.13
2017-05-29T05:50:21.643Z,25.22
2017-05-29T05:51:02.239Z,25.21
2017-05-29T05:51:42.849Z,25.36
2017-05-29T05:52:23.443Z,25.46
2017-05-29T05:53:04.049Z,25.41
2017-05-29T05:53:44.643Z,25.54
2017-05-29T05:54:25.232Z,25.59
2017-05-29T05:55:05.849Z,25.51
2017-05-29T05:55:46.425Z,25.68
2017-05-29T05:56:27.016Z,25.69
2017-05-29T05:57:07.648Z,25.75
2017-05-29T05:57:48.272Z,25.81
2017-05-29T05:58:28.888Z,25.9
2017-05-29T05:59:09.477Z,25.9
2017-05-29T05:59:50.062Z,26
2017-05-29T06:00:30.680Z,26.09
2017-05-29T06:01:11.277Z,26.1
2017-05-29T06:01:51.873Z,26.16
2017-05-29T06:02:32.462Z,26.07
2017-05-29T06:03:13.056Z,26.19
2017-05-29T06:03:53.772Z,26.15
2017-05-29T06:04:34.378Z,26.13
2017-05-29T06:05:14.992Z,26.22
2017-05-29T06:05:55.587Z,26.18
2017-05-29T06:06:36.178Z,26.23
2017-05-29T06:07:16.861Z,26.15
2017-05-29T06:07:57.450Z,26.28
2017-05-29T06:08:38.066Z,26.26
2017-05-29T06:09:18.676Z,26.26
2017-05-29T06:09:59.340Z,26.38
2017-05-29T06:10:39.992Z,26.48
2017-05-29T06:11:20.579Z,26.47
2017-05-29T06:12:01.422Z,26.56
2017-05-29T06:12:42.129Z,26.62
2017-05-29T06:13:22.771Z,26.58
2017-05-29T06:14:03.432Z,26.66
2017-05-29T06:14:44.022Z,26.66
2017-05-29T06:15:24.612Z,26.66
2017-05-29T06:16:05.353Z,26.66
2017-05-29T06:16:45.950Z,26.59
2017-05-29T06:17:26.561Z,26.56
2017-05-29T06:18:07.222Z,26.59
2017-05-29T06:18:47.824Z,26.63
2017-05-29T06:19:28.431Z,26.6
2017-05-29T06:20:09.043Z,26.53
2017-05-29T06:20:49.634Z,26.62
2017-05-29T06:21:30.225Z,26.58
2017-05-29T06:22:10.845Z,26.52
2017-05-29T06:22:51.449Z,26.59
2017-05-29T06:23:32.074Z,26.66
2017-05-29T06:24:12.656Z,26.71
2017-05-29T06:24:53.245Z,26.7
2017-05-29T06:25:33.828Z,26.74
2017-05-29T06:26:14.420Z,26.7
2017-05-29T06:26:55.015Z,26.6
2017-05-29T06:27:35.683Z,26.56
2017-05-29T06:28:16.266Z,26.59
2017-05-29T06:28:56.879Z,26.58
2017-05-29T06:29:37.471Z,26.6
2017-05-29T06:30:18.102Z,26.7
2017-05-29T06:30:58.692Z,26.75
2017-05-29T06:31:39.302Z,26.83
2017-05-29T06:32:19.911Z,26.78
2017-05-29T06:33:00.513Z,26.9
2017-05-29T06:33:41.236Z,26.92
2017-05-29T06:34:21.825Z,27.08
2017-05-29T06:35:02.478Z,27.15
2017-05-29T06:35:43.100Z,27.25
2017-05-29T06:36:23.694Z,27.39
2017-05-29T06:37:04.285Z,27.44
2017-05-29T06:37:44.884Z,27.42
2017-05-29T06:38:25.496Z,27.49
2017-05-29T06:39:06.117Z,27.49
2017-05-29T06:39:46.708Z,27.55
2017-05-29T06:40:27.315Z,27.71
2017-05-29T06:41:07.917Z,27.74
2017-05-29T06:41:48.521Z,27.78
2017-05-29T06:42:29.128Z,27.73
2017-05-29T06:43:09.721Z,27.78
2017-05-29T06:43:50.393Z,27.83
2017-05-29T06:44:30.985Z,27.83
2017-05-29T06:45:11.574Z,27.89
2017-05-29T06:45:52.167Z,27.92
2017-05-29T06:46:32.774Z,28.01
2017-05-29T06:47:13.391Z,28.05
2017-05-29T06:47:53.979Z,28.14
2017-05-29T06:48:34.597Z,28.14
2017-05-29T06:49:15.211Z,28.05
2017-05-29T06:49:55.802Z,28.12
2017-05-29T06:50:36.399Z,28.07
2017-05-29T06:51:17.006Z,28.15
2017-05-29T06:51:57.633Z,28.14
2017-05-29T06:52:38.227Z,28.1
2017-05-29T06:53:18.849Z,28.11
2017-05-29T06:53:59.459Z,28.23
2017-05-29T06:54:40.072Z,28.14
2017-05-29T06:55:20.678Z,28.14
2017-05-29T06:56:01.287Z,28.25
2017-05-29T06:56:41.883Z,28.22
2017-05-29T06:57:22.547Z,28.3
2017-05-29T06:58:03.169Z,28.22
2017-05-29T06:58:43.774Z,28.23
2017-05-29T06:59:24.443Z,28.33
2017-05-29T07:00:05.035Z,28.3
2017-05-29T07:00:45.628Z,28.27
2017-05-29T07:01:26.216Z,28.25
2017-05-29T07:02:06.836Z,28.25
2017-05-29T07:02:47.422Z,28.22
2017-05-29T07:03:28.024Z,28.19
2017-05-29T07:04:08.615Z,28.33
2017-05-29T07:04:49.208Z,28.32
2017-05-29T07:05:29.847Z,28.33
2017-05-29T07:06:10.444Z,28.41
2017-05-29T07:06:51.031Z,28.38
2017-05-29T07:07:31.626Z,28.47
2017-05-29T07:08:12.227Z,28.41
2017-05-29T07:08:52.823Z,28.38
2017-05-29T07:09:33.434Z,28.32
2017-05-29T07:10:14.026Z,28.38
2017-05-29T07:10:54.624Z,28.39
2017-05-29T07:11:35.222Z,28.41
2017-05-29T07:12:15.821Z,28.39
2017-05-29T07:12:56.409Z,28.45
2017-05-29T07:13:37.023Z,28.41
2017-05-29T07:14:17.656Z,28.44
2017-05-29T07:14:58.330Z,28.35
2017-05-29T07:15:38.920Z,28.29
2017-05-29T07:16:19.543Z,28.37
2017-05-29T07:17:00.143Z,28.45
2017-05-29T07:17:40.741Z,28.48
2017-05-29T07:18:21.331Z,28.45
2017-05-29T07:19:01.925Z,28.44
2017-05-29T07:19:42.507Z,28.41
2017-05-29T07:20:23.135Z,28.47
2017-05-29T07:21:03.708Z,28.47
2017-05-29T07:21:44.335Z,28.47
2017-05-29T07:22:24.917Z,28.52
2017-05-29T07:23:05.519Z,28.52
2017-05-29T07:23:46.119Z,28.45
2017-05-29T07:24:26.710Z,28.49
2017-05-29T07:25:07.308Z,28.57
2017-05-29T07:25:47.955Z,28.52
2017-05-29T07:26:28.566Z,28.57
2017-05-29T07:27:09.159Z,28.54
2017-05-29T07:27:49.769Z,28.63
2017-05-29T07:28:30.351Z,28.69
2017-05-29T07:29:10.942Z,28.69
2017-05-29T07:29:51.552Z,28.76
2017-05-29T07:30:32.144Z,28.82
2017-05-29T07:31:12.730Z,28.78
2017-05-29T07:31:53.330Z,28.74
2017-05-29T07:32:33.933Z,28.84
2017-05-29T07:33:14.534Z,28.85
2017-05-29T07:33:55.120Z,28.78
2017-05-29T07:34:35.718Z,28.91
2017-05-29T07:35:16.310Z,28.79
2017-05-29T07:35:56.946Z,28.85
2017-05-29T07:36:37.541Z,28.91
2017-05-29T07:37:18.182Z,28.86
2017-05-29T07:37:58.762Z,28.93
2017-05-29T07:38:39.377Z,29.01
2017-05-29T07:39:19.971Z,29.02
2017-05-29T07:40:00.566Z,29.1
2017-05-29T07:40:41.167Z,29.19
2017-05-29T07:41:21.757Z,29.14
2017-05-29T07:42:02.365Z,29.14
2017-05-29T07:42:42.958Z,29.1
2017-05-29T07:43:23.626Z,29.17
2017-05-29T07:44:04.227Z,29.08
2017-05-29T07:44:44.833Z,29.13
2017-05-29T07:45:25.456Z,29.17
2017-05-29T07:46:06.050Z,29.14
2017-05-29T07:46:46.649Z,29.17
2017-05-29T07:47:27.244Z,29.17
2017-05-29T07:48:07.841Z,29.16
2017-05-29T07:48:48.433Z,29.2
2017-05-29T07:49:29.033Z,29.22
2017-05-29T07:50:09.619Z,29.26
2017-05-29T07:50:50.211Z,29.19
2017-05-29T07:51:30.827Z,29.31
2017-05-29T07:52:11.432Z,29.29
2017-05-29T07:52:52.030Z,29.31
2017-05-29T07:53:32.634Z,29.31
2017-05-29T07:54:13.243Z,29.23
2017-05-29T07:54:53.846Z,29.34
2017-05-29T07:55:34.443Z,29.34
2017-05-29T07:56:15.030Z,29.29
2017-05-29T07:56:55.622Z,29.31
2017-05-29T07:57:36.216Z,29.23
2017-05-29T07:58:16.805Z,29.38
2017-05-29T07:58:57.412Z,29.29
2017-05-29T07:59:38.024Z,29.41
2017-05-29T08:00:18.641Z,29.39
2017-05-29T08:00:59.231Z,29.42
2017-05-29T08:01:39.822Z,29.38
2017-05-29T08:02:20.425Z,29.38
2017-05-29T08:03:01.023Z,29.45
2017-05-29T08:03:41.622Z,29.44
2017-05-29T08:04:22.223Z,29.32
2017-05-29T08:05:02.837Z,29.47
2017-05-29T08:05:43.453Z,29.36
2017-05-29T08:06:24.045Z,29.26
2017-05-29T08:07:04.644Z,29.38
2017-05-29T08:07:45.288Z,29.44
2017-05-29T08:08:25.881Z,29.42
2017-05-29T08:09:06.492Z,29.42
2017-05-29T08:09:47.097Z,29.38
2017-05-29T08:10:27.692Z,29.38
2017-05-29T08:11:08.295Z,29.27
2017-05-29T08:11:48.922Z,29.31
2017-05-29T08:12:29.522Z,29.32
2017-05-29T08:13:10.145Z,29.32
2017-05-29T08:13:50.717Z,29.38
2017-05-29T08:14:31.308Z,29.2
2017-05-29T08:15:11.901Z,29.34
2017-05-29T08:15:52.482Z,29.31
2017-05-29T08:16:33.073Z,29.29
2017-05-29T08:17:13.677Z,29.29
2017-05-29T08:17:54.274Z,29.32
2017-05-29T08:18:34.857Z,29.26
2017-05-29T08:19:15.459Z,29.26
2017-05-29T08:19:56.049Z,29.27
2017-05-29T08:20:36.627Z,29.29
2017-05-29T08:21:17.218Z,29.27
2017-05-29T08:21:57.807Z,29.22
2017-05-29T08:22:38.396Z,29.23
2017-05-29T08:23:18.997Z,29.22
2017-05-29T08:23:59.575Z,29.24
2017-05-29T08:24:40.178Z,29.31
2017-05-29T08:25:20.767Z,29.22
2017-05-29T08:26:01.374Z,29.32
2017-05-29T08:26:41.965Z,29.31
2017-05-29T08:27:22.599Z,29.34
2017-05-29T08:28:03.191Z,29.22
2017-05-29T08:28:43.806Z,29.29
2017-05-29T08:29:24.393Z,29.22
2017-05-29T08:30:04.976Z,29.27
2017-05-29T08:30:45.591Z,29.32
2017-05-29T08:31:26.190Z,29.19
2017-05-29T08:32:06.875Z,29.26
2017-05-29T08:32:48.274Z,29.23
2017-05-29T08:33:28.874Z,29.23
2017-05-29T08:34:09.503Z,29.23
2017-05-29T08:34:50.099Z,29.22
2017-05-29T08:35:33.926Z,29.23
2017-05-29T08:36:15.982Z,29.23
2017-05-29T08:36:56.685Z,29.24
2017-05-29T08:37:40.530Z,29.26
2017-05-29T08:38:21.128Z,29.19
2017-05-29T08:39:04.609Z,29.24
2017-05-29T08:39:45.208Z,29.23
2017-05-29T08:40:25.849Z,29.24
2017-05-29T08:41:06.799Z,29.26
2017-05-29T08:41:47.387Z,29.22
2017-05-29T08:42:28.015Z,29.23
2017-05-29T08:43:08.623Z,29.22
2017-05-29T08:43:49.220Z,29.27
2017-05-29T08:44:29.810Z,29.17
2017-05-29T08:45:11.424Z,29.19